DAUG/GHA METAR and TAF weather

Enter ICAO airport designator
Station Type Date Time Source
DAUG METAR 2019/02/23 02:00 UTC NOAA

DAUG 230200Z 35009KT CAVOK 11/M06 Q1025


Station Type Date Time Source
DAUG Decoded METAR 2019/02/23 02:00 UTC NOAA

Ghardaia, Algeria (DAUG) 32-23N 003-49E 450M
Feb 22, 2019 - 09:00 PM EST / 2019.02.23 0200 UTC
Wind: from the N (350 degrees) at 10 MPH (9 KT):0
Visibility: greater than 7 mile(s):0
Temperature: 51 F (11 C)
Dew Point: 21 F (-6 C)
Relative Humidity: 29%
Pressure (altimeter): 30.27 in. Hg (1025 hPa)
ob: DAUG 230200Z 35009KT CAVOK 11/M06 Q1025
cycle: 2

Station Type Date Time Source
DAUG TAF 2019/02/22 18:33 UTC NOAA

TAF DAUG 221700Z 2218/2318 34008KT CAVOK


Example: see airport list